Latest Weather Observations for Cabramurra

IDN60901

Issued at 4:02 pm EST Thursday 18 July 2024 (issued every 10 minutes, with the page automatically refreshed every 10 minutes)

About weather observations | Map of Canberra area stations | Latest observations for Canberra area | Other Formats
Station Details ID: 072161 Name: CABRAMURRA SMHEA AWS Lat: -35.94 Lon: 148.38 Height: 1482.4 m
Data from the previous 72 hours. | See also: Recent months at Cabramurra
Date/Time
EST
Temp
°C
App
Temp
°C
Dew
Point
°C
Rel
Hum
%
Delta-T
°C
Wind Press
QNH
hPa
Press
MSL
hPa
Rain since
9am
mm
Dir  Spd
km/h
Gust
km/h
Spd
kts
Gust
kts
18/04:00pm -0.6 -5.9 -0.7 99 0.0 W 17 24 9 13 - - 0.0
18/03:30pm -0.1 -5.4 -0.4 98 0.1 W 17 26 9 14 - - 0.0
18/03:00pm -0.5 -5.1 -0.8 98 0.1 W 13 20 7 11 - - 0.0
18/02:30pm -0.4 -4.5 -0.5 99 0.0 W 11 17 6 9 - - 0.0
18/02:00pm -0.3 -5.2 -0.4 99 0.0 W 15 22 8 12 - - 0.0
18/01:30pm -1.2 -6.6 -1.3 99 0.0 W 17 24 9 13 - - 0.0
18/01:00pm -1.1 -5.7 -1.1 100 0.0 WSW 13 20 7 11 - - 0.0
18/12:30pm -1.1 -6.5 -1.1 100 0.0 W 17 28 9 15 - - 0.0
18/12:00pm -0.9 -5.5 -0.9 100 0.0 WSW 13 20 7 11 - - 0.0
18/11:30am -1.1 -7.0 -1.1 100 0.0 W 20 32 11 17 - - 0.0
18/11:00am -0.7 -6.4 -0.7 100 0.0 W 19 24 10 13 - - 0.0
18/10:30am -0.8 -2.9 -0.8 100 0.0 CALM 0 0 0 0 - - 0.0
18/10:00am -0.6 -2.7 -0.6 100 0.0 CALM 0 0 0 0 - - 0.0
18/09:30am -0.4 -6.2 -0.4 100 0.0 W 20 30 11 16 - - 0.0
18/09:00am -0.1 -6.7 -0.1 100 0.0 WNW 24 35 13 19 - - 0.0
18/08:30am 0.0 -6.2 0.0 100 0.0 WNW 22 35 12 19 - - 0.0
18/08:00am 0.1 -5.5 0.1 100 0.0 NW 19 26 10 14 - - 0.0
18/07:30am 0.1 -5.1 0.1 100 0.0 NW 17 24 9 13 - - 0.0
18/07:00am 0.1 -5.1 0.1 100 0.0 NW 17 22 9 12 - - 0.0
18/06:30am 0.3 -4.5 0.3 100 0.0 WNW 15 22 8 12 - - 0.0
18/06:00am 0.3 -4.5 0.3 100 0.0 WNW 15 24 8 13 - - 0.0
18/05:30am 0.4 -4.0 0.4 100 0.0 WNW 13 17 7 9 - - 0.0
18/05:00am 0.3 -4.5 0.3 100 0.0 W 15 20 8 11 - - 0.0
18/04:30am 0.1 -4.7 0.1 100 0.0 WNW 15 22 8 12 - - 0.0
18/04:00am -0.2 -4.3 -0.2 100 0.0 W 11 15 6 8 - - 0.0
18/03:30am 0.3 -4.1 0.2 99 0.0 W 13 17 7 9 - - 0.0
18/03:00am 0.4 -4.0 0.3 99 0.0 WSW 13 20 7 11 - - 0.0
18/02:30am 0.3 -4.5 0.2 99 0.0 WSW 15 19 8 10 - - 0.0
18/02:00am -0.2 -3.6 -0.3 99 0.0 S 7 13 4 7 - - 0.0
18/01:30am -0.3 -4.4 -0.4 99 0.0 S 11 15 6 8 - - 0.0
18/01:00am -0.6 -4.8 -0.7 99 0.0 S 11 15 6 8 - - 0.0
18/12:30am -0.5 -4.3 -0.6 99 0.0 S 9 11 5 6 - - 0.0
18/12:00am -0.3 -4.0 -0.3 100 0.0 S 9 13 5 7 - - 0.0
 
Date/Time
EST
Temp
°C
App
Temp
°C
Dew
Point
°C
Rel
Hum
%
Delta-T
°C
Wind Press
QNH
hPa
Press
MSL
hPa
Rain since
9am
mm
Dir  Spd
km/h
Gust
km/h
Spd
kts
Gust
kts
17/11:30pm -0.3 -4.4 -0.3 100 0.0 S 11 13 6 7 - - 0.0
17/11:00pm 0.3 -4.1 0.3 100 0.0 SSE 13 15 7 8 - - 0.0
17/10:30pm 0.4 -4.0 0.4 100 0.0 S 13 15 7 8 - - 0.0
17/10:00pm 0.1 -4.7 0.1 100 0.0 S 15 19 8 10 - - 0.0
17/09:30pm 0.0 -4.8 0.0 100 0.0 S 15 17 8 9 - - 0.0
17/09:00pm 0.2 -4.2 0.2 100 0.0 S 13 15 7 8 - - 0.0
17/08:30pm 0.4 -3.2 0.4 100 0.0 S 9 13 5 7 - - 0.0
17/08:00pm 0.7 -3.3 0.7 100 0.0 SSW 11 15 6 8 - - 0.0
17/07:30pm 1.0 -3.7 1.0 100 0.0 SSW 15 20 8 11 - - 0.0
17/07:00pm 1.2 -3.5 1.2 100 0.0 SSW 15 17 8 9 - - 0.0
17/06:30pm 1.1 -3.2 1.1 100 0.0 SSW 13 17 7 9 - - 0.0
17/06:00pm 1.0 -2.5 1.0 100 0.0 SSW 9 13 5 7 - - 0.0
17/05:30pm 1.2 -2.3 1.2 100 0.0 SSW 9 13 5 7 - - 0.0
17/05:00pm 1.4 -0.7 1.4 100 0.0 WSW 2 7 1 4 - - 0.0
17/04:30pm 1.5 -1.6 1.5 100 0.0 W 7 9 4 5 - - 0.0
17/04:00pm 1.6 -1.5 1.6 100 0.0 W 7 9 4 5 - - 0.0
17/03:30pm 1.7 -1.2 1.7 100 0.0 WNW 6 9 3 5 - - 0.0
17/03:00pm 1.8 -1.2 1.8 100 0.0 WNW 7 11 4 6 - - 0.0
17/02:30pm 2.9 0.1 2.9 100 0.0 SW 7 9 4 5 - - 0.0
17/02:00pm 1.9 -0.9 1.9 100 0.0 SSE 6 9 3 5 - - 0.0
17/01:30pm 1.7 -1.7 1.7 100 0.0 WNW 9 11 5 6 - - 0.0
17/01:00pm 2.5 -0.4 2.5 100 0.0 SSW 7 9 4 5 - - 0.0
17/12:30pm 2.3 -0.7 2.3 100 0.0 W 7 13 4 7 - - 0.0
17/12:00pm 2.5 -1.6 2.5 100 0.0 SW 13 22 7 12 - - 0.0
17/11:30am 2.5 -0.8 2.5 100 0.0 SSW 9 15 5 8 - - 0.0
17/11:00am 2.0 -0.8 2.0 100 0.0 WSW 6 9 3 5 - - 0.0
17/10:30am 1.4 -1.5 1.4 100 0.0 SSW 6 11 3 6 - - 0.0
17/10:00am 0.6 -3.0 0.6 100 0.0 SSW 9 11 5 6 - - 0.0
17/09:30am 0.3 -3.3 0.3 100 0.0 SSW 9 13 5 7 - - 0.0
17/09:00am 0.2 -3.5 0.2 100 0.0 SSW 9 11 5 6 - - 0.4
17/08:30am 0.0 -4.1 0.0 100 0.0 S 11 17 6 9 - - 0.4
17/08:00am -0.1 -2.1 -0.1 100 0.0 CALM 0 0 0 0 - - 0.4
17/07:30am -0.1 -2.1 -0.1 100 0.0 CALM 0 0 0 0 - - 0.4
17/07:00am -0.2 -2.2 -0.2 100 0.0 CALM 0 0 0 0 - - 0.4
17/06:30am -0.2 -2.2 -0.2 100 0.0 CALM 0 0 0 0 - - 0.4
17/06:00am -0.2 -2.2 -0.2 100 0.0 CALM 0 0 0 0 - - 0.4
17/05:30am -0.1 -2.1 -0.1 100 0.0 CALM 0 0 0 0 - - 0.4
17/05:00am -0.2 -2.2 -0.2 100 0.0 CALM 0 0 0 0 - - 0.4
17/04:30am -0.1 -2.1 -0.1 100 0.0 CALM 0 0 0 0 - - 0.4
17/04:00am 0.0 -2.0 0.0 100 0.0 CALM 0 0 0 0 - - 0.4
17/03:30am -0.2 -2.2 -0.2 100 0.0 CALM 0 0 0 0 - - 0.4
17/03:00am -0.5 -4.6 -0.5 100 0.0 SSW 11 13 6 7 - - 0.4
17/02:30am -0.6 -5.1 -0.6 100 0.0 S 13 17 7 9 - - 0.4
17/02:00am 0.2 -4.6 0.2 100 0.0 S 15 19 8 10 - - 0.4
17/01:30am 0.5 -4.3 0.5 100 0.0 SSW 15 20 8 11 - - 0.4
17/01:00am 0.2 -4.6 0.2 100 0.0 SSW 15 20 8 11 - - 0.4
17/12:30am 0.4 -4.0 0.4 100 0.0 SW 13 19 7 10 - - 0.4
17/12:00am 0.4 -4.4 0.4 100 0.0 SW 15 20 8 11 - - 0.4
 
Date/Time
EST
Temp
°C
App
Temp
°C
Dew
Point
°C
Rel
Hum
%
Delta-T
°C
Wind Press
QNH
hPa
Press
MSL
hPa
Rain since
9am
mm
Dir  Spd
km/h
Gust
km/h
Spd
kts
Gust
kts
16/11:30pm 0.1 -5.1 0.1 100 0.0 SSW 17 20 9 11 - - 0.4
16/11:00pm 0.4 -4.8 0.4 100 0.0 SSW 17 20 9 11 - - 0.4
16/10:30pm 0.3 -4.9 0.3 100 0.0 SSW 17 19 9 10 - - 0.4
16/10:00pm 0.5 -4.3 0.5 100 0.0 SW 15 20 8 11 - - 0.4
16/09:30pm 0.8 -3.5 0.8 100 0.0 S 13 19 7 10 - - 0.4
16/09:00pm 0.8 -3.9 0.8 100 0.0 SSW 15 19 8 10 - - 0.4
16/08:30pm 0.9 -3.4 0.9 100 0.0 SSW 13 20 7 11 - - 0.4
16/08:00pm 1.3 -3.0 1.3 100 0.0 SW 13 19 7 10 - - 0.4
16/07:30pm 1.5 -2.7 1.5 100 0.0 SW 13 15 7 8 - - 0.4
16/07:00pm 1.5 -2.7 1.5 100 0.0 WSW 13 19 7 10 - - 0.4
16/06:30pm 1.4 -3.6 1.4 100 0.0 WSW 17 20 9 11 - - 0.4
16/06:00pm 1.1 -2.8 1.1 100 0.0 WSW 11 15 6 8 - - 0.4
16/05:30pm 0.9 -3.8 0.9 100 0.0 SSW 15 20 8 11 - - 0.4
16/05:00pm 0.3 -3.3 0.3 100 0.0 W 9 13 5 7 - - 0.4
16/04:30pm 0.3 -3.3 0.3 100 0.0 W 9 11 5 6 - - 0.2
16/04:00pm 0.3 -3.3 0.3 100 0.0 WSW 9 11 5 6 - - 0.2
16/03:30pm 0.5 -3.1 0.5 100 0.0 W 9 11 5 6 - - 0.2
16/03:00pm 0.6 -3.0 0.6 100 0.0 WSW 9 9 5 5 - - 0.2
16/02:30pm 0.3 -3.3 0.3 100 0.0 W 9 15 5 8 - - 0.2
16/02:00pm 0.4 -3.6 0.4 100 0.0 W 11 15 6 8 - - 0.2
16/01:30pm 0.2 -3.1 0.2 100 0.0 WNW 7 9 4 5 - - 0.2
16/01:00pm 0.3 -3.0 0.3 100 0.0 WNW 7 9 4 5 - - 0.2
16/12:30pm 0.7 -1.6 0.7 100 0.0 SSW 2 7 1 4 - - 0.2
16/12:00pm 0.0 -2.7 0.0 100 0.0 SW 4 9 2 5 - - 0.2
16/11:30am 0.0 -2.4 0.0 100 0.0 SW 2 9 1 5 - - 0.2
16/11:00am 0.0 -2.0 0.0 100 0.0 CALM 0 0 0 0 - - 0.2
16/10:30am -0.1 -2.1 -0.1 100 0.0 CALM 0 0 0 0 - - 0.2
16/10:00am -0.3 -2.3 -0.3 100 0.0 CALM 0 6 0 3 - - 0.2
16/09:30am -0.3 -3.7 -0.3 100 0.0 WNW 7 9 4 5 - - 0.2
16/09:00am -0.5 -4.3 -0.5 100 0.0 WNW 9 11 5 6 - - 3.4
16/08:30am -0.6 -3.8 -0.6 100 0.0 WNW 6 9 3 5 - - 3.4
16/08:00am -0.9 -4.7 -0.9 100 0.0 WNW 9 11 5 6 - - 3.4
16/07:30am -1.1 -4.9 -1.1 100 0.0 WNW 9 11 5 6 - - 3.4
16/07:00am -1.2 -5.4 -1.2 100 0.0 WNW 11 13 6 7 - - 3.4
16/06:30am -1.4 -5.7 -1.4 100 0.0 WNW 11 15 6 8 - - 3.4
16/06:00am -1.7 -7.1 -1.7 100 0.0 WNW 17 22 9 12 - - 3.4
16/05:30am -1.9 -7.4 -1.9 100 0.0 WNW 17 22 9 12 - - 3.4
16/05:00am -2.0 -7.5 -2.0 100 0.0 WNW 17 20 9 11 - - 3.4
16/04:30am -2.1 -7.6 -2.2 99 -0.1 WNW 17 24 9 13 - - 3.4
16/04:00am -2.2 -8.1 -2.3 99 -0.1 WNW 19 26 10 14 - - 3.4
16/03:30am -2.2 -8.7 -2.3 99 -0.1 WNW 22 30 12 16 - - 3.4
16/03:00am -2.1 -8.2 -2.2 99 -0.1 WNW 20 28 11 15 - - 3.4
16/02:30am -2.1 -8.6 -2.1 100 0.0 WNW 22 32 12 17 - - 3.4
16/02:00am -2.2 -9.4 -2.3 99 -0.1 WNW 26 35 14 19 - - 3.4
16/01:30am -2.4 -9.3 -2.5 99 -0.1 WNW 24 33 13 18 - - 3.4
16/01:00am -2.4 -9.7 -2.5 99 -0.1 WNW 26 37 14 20 - - 3.4
16/12:30am -2.4 -9.7 -2.5 99 -0.1 WNW 26 35 14 19 - - 3.4
16/12:00am -2.2 -9.1 -2.3 99 -0.1 WNW 24 32 13 17 - - 3.4
 
Date/Time
EST
Temp
°C
App
Temp
°C
Dew
Point
°C
Rel
Hum
%
Delta-T
°C
Wind Press
QNH
hPa
Press
MSL
hPa
Rain since
9am
mm
Dir  Spd
km/h
Gust
km/h
Spd
kts
Gust
kts
15/11:30pm -2.1 -9.3 -2.2 99 -0.1 WNW 26 35 14 19 - - 3.4
15/11:00pm -2.1 -8.9 -2.1 100 0.0 WNW 24 35 13 19 - - 3.4
15/10:30pm -2.1 -8.6 -2.1 100 0.0 WNW 22 32 12 17 - - 3.4
15/10:00pm -2.1 -8.9 -2.1 100 0.0 WNW 24 35 13 19 - - 3.4
15/09:30pm -2.2 -8.7 -2.3 99 -0.1 WNW 22 30 12 16 - - 3.4
15/09:00pm -2.2 -9.1 -2.3 99 -0.1 WNW 24 32 13 17 - - 3.4
15/08:30pm -2.1 -8.9 -2.1 100 0.0 WNW 24 33 13 18 - - 3.4
15/08:00pm -2.1 -9.7 -2.1 100 0.0 WNW 28 37 15 20 - - 3.4
15/07:30pm -1.9 -9.5 -1.9 100 0.0 W 28 39 15 21 - - 3.4
15/07:00pm -1.8 -9.7 -1.8 100 0.0 WNW 30 44 16 24 - - 3.4
15/06:32pm -1.9 -9.5 -1.9 100 0.0 W 28 48 15 26 - - 3.4
15/06:30pm -1.8 -8.6 -1.8 100 0.0 W 24 39 13 21 - - 3.4
15/06:00pm -2.1 -9.7 -2.1 100 0.0 W 28 39 15 21 - - 3.4
15/05:55pm -1.9 -9.5 -1.9 100 0.0 W 28 46 15 25 - - 3.4
15/05:30pm -1.9 -9.5 -1.9 100 0.0 W 28 39 15 21 - - 3.4
15/05:19pm -2.0 -9.6 -2.0 100 0.0 WNW 28 46 15 25 - - 3.4
15/05:00pm -1.9 -10.2 -1.9 100 0.0 W 32 43 17 23 - - 3.4
15/04:30pm -1.9 -9.8 -1.9 100 0.0 W 30 43 16 23 - - 3.4

Latest Capital City Observations: Canberra | Sydney | Melbourne | Brisbane | Adelaide | Perth | Hobart | Darwin

Other formats

Comma delimited format used in spreadsheet applications
http://www.bom.gov.au/fwo/IDN60903/IDN60903.95916.axf

JavaScript Object Notation format (JSON) in row-major order
http://www.bom.gov.au/fwo/IDN60903/IDN60903.95916.json

Data quality

Most of these data are generated automatically and are frequently updated. Quality checks on data are not normally performed. It is possible for incorrect values to appear. Refer to information at About Latest Weather Observations and please check the disclaimer before using these data.